Huvudsida
METAR-TAF:

METAR-TAF

Flygplatser :

Locarnos flygplats

Locarno, Schweiz

latitud: 46-09-55N, longitud: 8-52-40E, höjd: 198 m

Aktuellt väderrapport

Denna rapport gjordes för 17 minuter sedan, klockan 16:50 UTC
Vind 6 kt från sydost
Temperatur 12°C
Fuktighet 17%
Tryck 1017 hPa
Sikt 10 km eller mer

METAR: LSZL 281650Z AUTO 13006KT 9999NDV NCD 12/M12 Q1017 RMK

Tid: 18:07 (17:07 UTC)

Väderprognos

Denna rapport gjordes för 5 timmar och 42 minuter sedan, klockan 11:25 UTC
Prognos gäller från 28 kl. 12 UTC till 28 kl. 21 UTC
Vind 10 kt från ost
Sikt 10 km eller mer
Inga moln under 1 500 m eller inga cumulonimbus
Blir
från 28 kl. 12 UTC till 28 kl. 14 UTC
Vind 3 kt varierande vindriktning

TAF: LSZL 281125Z 2812/2821 09010KT CAVOK BECMG 2812/2814 VRB03KT

Aktuella väderrapporter och prognoser från 4000 flygplatser (METAR- och TAF-rapporter).

De tillgängliga stationerna syns som gula och röda prickar på kartan.

För musen över prickarna för att se namnen på stationerna.

Klicka sedan för att få väderrapporter och prognoser.

För att ändra kartan: Klicka på de gröna knapparna med ett svart kors på för att zooma in; den gröna knappen med ett streck på för att zooma ut; eller på de gröna pilarna för angränsande kartor.


METAR-TAF: